createdAt,value
2023-03-03T09:35:05.288Z,8.70
2023-03-03T09:40:30.476Z,10.00
2023-03-03T09:45:44.889Z,7.83
2023-03-03T09:50:59.659Z,8.67
2023-03-03T09:56:08.365Z,9.00
2023-03-03T10:01:35.131Z,7.57
2023-03-03T10:06:43.592Z,8.13
2023-03-03T10:12:08.614Z,7.90
2023-03-03T10:17:20.070Z,6.77
2023-03-03T10:22:37.111Z,6.67
2023-03-03T10:28:08.059Z,7.50
2023-03-03T10:33:17.075Z,7.40
2023-03-03T10:38:28.904Z,8.60
2023-03-03T10:43:43.111Z,8.83
2023-03-03T10:48:54.586Z,9.67
2023-03-03T10:54:09.035Z,7.97
2023-03-03T10:59:23.229Z,8.83
2023-03-03T11:04:45.554Z,8.13
2023-03-03T11:10:13.639Z,8.73
2023-03-03T11:15:22.139Z,8.23
2023-03-03T11:20:39.318Z,8.17
2023-03-03T11:25:55.931Z,8.50
2023-03-03T11:31:07.197Z,8.37
2023-03-03T11:36:24.245Z,8.17
2023-03-03T11:41:35.505Z,9.07
2023-03-03T11:46:50.447Z,9.00
2023-03-03T11:52:04.843Z,7.83
2023-03-03T11:57:19.167Z,8.10
2023-03-03T12:02:55.064Z,8.23
2023-03-03T12:08:11.842Z,7.37
2023-03-03T12:13:26.323Z,8.47
2023-03-03T12:18:50.033Z,7.47
2023-03-03T12:24:04.921Z,6.83
2023-03-03T12:29:16.590Z,7.50
2023-03-03T12:34:37.266Z,7.93
2023-03-03T12:40:06.853Z,7.70
2023-03-03T12:45:32.097Z,6.97
2023-03-03T12:50:49.620Z,6.70
2023-03-03T12:56:13.383Z,7.87
2023-03-03T13:01:26.443Z,7.27
2023-03-03T13:06:35.120Z,7.80
2023-03-03T13:11:54.071Z,6.83
2023-03-03T13:17:11.873Z,6.70
2023-03-03T13:22:35.588Z,8.53
2023-03-03T13:27:44.241Z,7.13
2023-03-03T13:33:16.684Z,7.20
2023-03-03T13:38:27.849Z,7.73
2023-03-03T13:43:48.428Z,7.60
2023-03-03T13:49:09.697Z,8.20
2023-03-03T13:54:24.941Z,8.10
2023-03-03T13:59:59.116Z,7.10
2023-03-03T14:05:08.823Z,8.30
2023-03-03T14:10:25.497Z,7.47
2023-03-03T14:15:41.331Z,8.53
2023-03-03T14:20:52.874Z,8.03
2023-03-03T14:26:01.624Z,7.97
2023-03-03T14:31:19.529Z,7.30
2023-03-03T14:36:30.276Z,8.00
2023-03-03T14:41:42.970Z,7.60
2023-03-03T14:46:50.039Z,6.97
2023-03-03T14:51:57.179Z,6.70
2023-03-03T14:57:08.506Z,6.57
2023-03-03T15:02:23.023Z,6.73
2023-03-03T15:07:34.670Z,6.93
2023-03-03T15:12:42.778Z,6.80
2023-03-03T15:18:06.958Z,6.50
2023-03-03T15:23:33.579Z,6.97
2023-03-03T15:28:59.472Z,6.60
2023-03-03T15:34:29.244Z,7.17
2023-03-03T15:39:44.493Z,9.10
2023-03-03T15:44:55.434Z,7.37
2023-03-03T15:50:20.260Z,7.57
2023-03-03T15:55:47.019Z,7.50
2023-03-03T16:01:18.248Z,7.13
2023-03-03T16:06:41.730Z,8.30
2023-03-03T16:12:20.388Z,7.57
2023-03-03T16:17:35.045Z,7.63
2023-03-03T16:22:46.231Z,7.77
2023-03-03T16:28:03.420Z,7.90
2023-03-03T16:33:20.902Z,7.70
2023-03-03T16:38:38.072Z,7.10
2023-03-03T16:43:55.515Z,6.73
2023-03-03T16:49:12.536Z,7.23
2023-03-03T16:54:44.471Z,7.23
2023-03-03T17:00:08.241Z,6.87
2023-03-03T17:05:32.863Z,6.50
2023-03-03T17:10:44.236Z,7.27
2023-03-03T17:16:08.696Z,7.00
2023-03-03T17:21:38.548Z,7.20
2023-03-03T17:26:56.171Z,7.23
2023-03-03T17:32:08.951Z,6.70
2023-03-03T17:37:32.723Z,7.40
2023-03-03T17:42:51.078Z,7.67
2023-03-03T17:48:08.459Z,6.60
2023-03-03T17:53:33.604Z,8.00
2023-03-03T17:59:00.262Z,7.43
2023-03-03T18:04:10.316Z,7.47
2023-03-03T18:09:21.812Z,7.73
2023-03-03T18:14:42.396Z,7.67
2023-03-03T18:20:23.821Z,7.73
2023-03-03T18:26:01.200Z,7.43
2023-03-03T18:31:09.672Z,8.13
2023-03-03T18:36:18.226Z,7.67
2023-03-03T18:41:29.591Z,7.10
2023-03-03T18:46:40.785Z,8.07
2023-03-03T18:51:49.369Z,8.23
2023-03-03T18:57:00.721Z,7.77
2023-03-03T19:02:15.598Z,9.00
2023-03-03T19:07:25.681Z,7.70
2023-03-03T19:12:49.246Z,8.93
2023-03-03T19:17:57.185Z,9.53
2023-03-03T19:23:17.786Z,9.43
2023-03-03T19:28:35.475Z,8.70
2023-03-03T19:33:46.733Z,9.63
2023-03-03T19:38:57.863Z,9.77
2023-03-03T19:44:18.258Z,10.03
2023-03-03T19:49:51.875Z,10.53
2023-03-03T19:55:21.823Z,10.43
2023-03-03T20:00:50.877Z,10.10
2023-03-03T20:06:16.868Z,9.40
2023-03-03T20:11:48.469Z,9.70
2023-03-03T20:16:58.228Z,10.87
2023-03-03T20:22:27.986Z,10.97
2023-03-03T20:27:57.889Z,11.90
2023-03-03T20:33:15.041Z,12.83
2023-03-03T20:38:33.138Z,11.53
2023-03-03T20:43:55.114Z,11.30
2023-03-03T20:49:12.395Z,11.70
2023-03-03T20:54:26.073Z,11.47
2023-03-03T20:59:40.770Z,11.90
2023-03-03T21:04:46.515Z,11.53
2023-03-03T21:09:53.472Z,10.13
2023-03-03T21:15:07.692Z,10.47
2023-03-03T21:20:22.175Z,11.60
2023-03-03T21:25:53.204Z,11.53
2023-03-03T21:31:18.516Z,11.63
2023-03-03T21:36:35.844Z,10.73
2023-03-03T21:41:56.678Z,10.43
2023-03-03T21:47:02.412Z,10.20
2023-03-03T21:52:08.153Z,10.07
2023-03-03T21:57:13.918Z,9.37
2023-03-03T22:02:19.471Z,9.93
2023-03-03T22:07:25.049Z,10.30
2023-03-03T22:12:30.589Z,10.37
2023-03-03T22:17:36.062Z,9.80
2023-03-03T22:22:41.608Z,9.90
2023-03-03T22:27:47.484Z,9.90
2023-03-03T22:32:54.770Z,9.87
2023-03-03T22:38:00.674Z,8.90
2023-03-03T22:43:06.634Z,9.13
2023-03-03T22:48:13.033Z,10.20
2023-03-03T22:53:19.230Z,8.97
2023-03-03T22:58:29.533Z,10.30
2023-03-03T23:03:35.059Z,9.57
2023-03-03T23:08:40.497Z,9.43
2023-03-03T23:13:45.898Z,10.20
2023-03-03T23:18:51.384Z,10.20
2023-03-03T23:23:56.888Z,10.07
2023-03-03T23:29:02.444Z,9.57
2023-03-03T23:34:07.859Z,9.97
2023-03-03T23:39:13.316Z,10.07
2023-03-03T23:44:18.856Z,10.10
2023-03-03T23:49:24.301Z,10.03
2023-03-03T23:54:30.036Z,10.83
2023-03-03T23:59:36.202Z,9.80
